createdAt,value
2022-07-28T00:00:54.017Z,99688.09
2022-07-28T00:06:56.010Z,99692.00
2022-07-28T00:12:59.780Z,99680.22
2022-07-28T00:19:02.335Z,99682.91
2022-07-28T00:25:04.895Z,99686.41
2022-07-28T00:31:09.496Z,99691.56
2022-07-28T00:37:14.498Z,99698.97
2022-07-28T00:43:17.006Z,99691.09
2022-07-28T00:49:19.366Z,99686.91
2022-07-28T00:55:23.510Z,99677.53
2022-07-28T01:01:25.779Z,99671.94
2022-07-28T01:07:41.730Z,99671.28
2022-07-28T01:13:59.645Z,99675.13
2022-07-28T01:20:06.106Z,99668.22
2022-07-28T01:26:29.196Z,99673.09
2022-07-28T01:32:46.500Z,99667.06
2022-07-28T01:38:49.914Z,99667.44
2022-07-28T01:44:55.576Z,99644.63
2022-07-28T01:50:58.453Z,99653.38
2022-07-28T01:57:02.409Z,99646.28
2022-07-28T02:03:07.217Z,99651.28
2022-07-28T02:09:10.786Z,99656.84
2022-07-28T02:15:15.047Z,99653.44
2022-07-28T02:21:18.168Z,99645.41
2022-07-28T02:27:24.471Z,99642.13
2022-07-28T02:33:59.757Z,99649.56
2022-07-28T02:40:00.258Z,99646.75
2022-07-28T02:46:10.961Z,99646.94
2022-07-28T02:52:15.824Z,99640.50
2022-07-28T02:58:29.564Z,99649.38
2022-07-28T03:04:50.279Z,99649.38
2022-07-28T03:11:10.754Z,99652.63
2022-07-28T03:17:12.862Z,99672.44
2022-07-28T03:23:16.232Z,99664.31
2022-07-28T03:29:19.836Z,99663.84
2022-07-28T03:35:23.526Z,99666.41
2022-07-28T03:41:28.223Z,99664.19
2022-07-28T03:47:30.296Z,99676.94
2022-07-28T03:53:35.317Z,99680.13
2022-07-28T03:59:37.320Z,99669.06
2022-07-28T04:05:40.046Z,99674.25
2022-07-28T04:11:43.603Z,99674.28
2022-07-28T04:17:48.707Z,99674.84
2022-07-28T04:23:50.820Z,99671.22
2022-07-28T04:29:52.803Z,99671.91
2022-07-28T04:35:54.876Z,99678.41
2022-07-28T04:41:57.092Z,99681.31
2022-07-28T04:47:59.124Z,99678.22
2022-07-28T04:54:01.110Z,99685.88
2022-07-28T05:00:12.697Z,99672.38
2022-07-28T05:06:15.332Z,99673.75
2022-07-28T05:12:17.332Z,99669.34
2022-07-28T05:18:19.357Z,99670.22
2022-07-28T05:24:21.352Z,99671.47
2022-07-28T05:30:23.406Z,99676.84
2022-07-28T05:36:25.381Z,99681.59
2022-07-28T05:42:29.646Z,99690.75
2022-07-28T05:48:31.808Z,99691.81
2022-07-28T05:54:33.904Z,99698.03
2022-07-28T06:00:36.026Z,99695.28
2022-07-28T06:06:37.995Z,99708.06
2022-07-28T06:12:42.631Z,99695.28
2022-07-28T06:18:44.659Z,99699.50
2022-07-28T06:24:46.644Z,99700.00
2022-07-28T06:30:49.974Z,99691.47
2022-07-28T06:36:52.760Z,99692.13
2022-07-28T06:42:54.860Z,99695.94
2022-07-28T06:48:56.881Z,99693.47
2022-07-28T06:55:00.613Z,99687.78
2022-07-28T07:01:07.736Z,99687.44
2022-07-28T07:07:14.824Z,99676.09
2022-07-28T07:13:19.120Z,99682.06
2022-07-28T07:19:21.881Z,99683.25
2022-07-28T07:25:23.926Z,99682.09
2022-07-28T07:31:25.957Z,99681.34
2022-07-28T07:37:28.333Z,99681.50
2022-07-28T07:43:30.362Z,99682.81
2022-07-28T07:49:43.476Z,99681.41
2022-07-28T07:55:48.266Z,99681.22
2022-07-28T08:01:54.694Z,99677.78
2022-07-28T08:07:56.705Z,99682.03
2022-07-28T08:13:58.685Z,99674.50
2022-07-28T08:20:02.251Z,99670.19
2022-07-28T08:26:04.547Z,99666.91
2022-07-28T08:32:07.278Z,99663.56
2022-07-28T08:38:11.318Z,99658.41
2022-07-28T08:44:21.358Z,99655.63
2022-07-28T08:50:24.597Z,99647.41
2022-07-28T08:56:28.178Z,99649.06
2022-07-28T09:02:31.996Z,99641.00
2022-07-28T09:08:34.208Z,99632.41
2022-07-28T09:14:36.371Z,99638.91
2022-07-28T09:20:38.909Z,99634.69
2022-07-28T09:27:02.031Z,99635.25
2022-07-28T09:33:42.786Z,99623.59
2022-07-28T09:39:47.752Z,99632.91
2022-07-28T09:46:10.290Z,99630.28
2022-07-28T09:52:12.473Z,99624.00
2022-07-28T09:58:14.877Z,99611.44
2022-07-28T10:04:28.035Z,99615.81
2022-07-28T10:10:31.212Z,99605.75
2022-07-28T10:16:46.886Z,99610.03
2022-07-28T10:22:49.798Z,99595.25
2022-07-28T10:28:53.948Z,99579.81
2022-07-28T10:35:17.969Z,99578.81
2022-07-28T10:41:22.227Z,99574.25
2022-07-28T10:47:35.876Z,99571.31
2022-07-28T10:53:54.560Z,99556.69
2022-07-28T11:00:26.365Z,99571.03
2022-07-28T11:06:40.211Z,99559.97
2022-07-28T11:12:54.778Z,99558.31
2022-07-28T11:19:36.952Z,99553.28
2022-07-28T11:25:31.587Z,99557.16
2022-07-28T11:31:48.276Z,99558.88
2022-07-28T11:38:02.555Z,99545.28
2022-07-28T11:44:28.891Z,99538.22
2022-07-28T11:50:31.464Z,99542.59
2022-07-28T11:56:37.287Z,99530.47
2022-07-28T12:02:41.199Z,99523.47
2022-07-28T12:08:56.994Z,99516.50
2022-07-28T12:15:03.356Z,99507.66
2022-07-28T12:21:08.477Z,99507.34
2022-07-28T12:27:13.505Z,99513.50
2022-07-28T12:33:29.010Z,99496.44
2022-07-28T12:39:36.717Z,99484.41
2022-07-28T12:45:46.549Z,99478.59
2022-07-28T12:51:48.765Z,99491.53
2022-07-28T12:57:52.835Z,99484.88
2022-07-28T13:03:54.841Z,99478.13
2022-07-28T13:10:11.544Z,99481.22
2022-07-28T13:16:22.031Z,99478.72
2022-07-28T13:22:28.950Z,99479.88
2022-07-28T13:28:31.132Z,99476.09
2022-07-28T13:34:33.109Z,99464.16
2022-07-28T13:40:35.107Z,99459.00
2022-07-28T13:46:40.435Z,99441.66
2022-07-28T13:52:49.053Z,99448.69
2022-07-28T13:58:53.572Z,99446.38
2022-07-28T14:04:55.534Z,99454.97
2022-07-28T14:10:59.101Z,99458.56
2022-07-28T14:17:14.474Z,99445.53
2022-07-28T14:23:23.055Z,99439.03
2022-07-28T14:29:25.931Z,99427.63
2022-07-28T14:35:27.888Z,99418.91
2022-07-28T14:41:29.960Z,99420.00
2022-07-28T14:47:44.622Z,99406.34
2022-07-28T14:53:51.770Z,99410.09
2022-07-28T14:59:54.186Z,99410.41
2022-07-28T15:05:57.763Z,99405.06
2022-07-28T15:11:59.925Z,99399.16
2022-07-28T15:18:03.710Z,99396.34
2022-07-28T15:24:08.967Z,99390.81
2022-07-28T15:30:12.085Z,99406.00
2022-07-28T15:36:14.637Z,99410.31
2022-07-28T15:42:16.705Z,99392.38
2022-07-28T15:48:18.678Z,99384.53
2022-07-28T15:54:20.737Z,99385.47
2022-07-28T16:00:22.828Z,99382.03
2022-07-28T16:06:26.486Z,99375.56
2022-07-28T16:12:29.274Z,99370.06
2022-07-28T16:18:31.824Z,99365.47
2022-07-28T16:24:33.891Z,99367.66
2022-07-28T16:30:36.026Z,99358.03
2022-07-28T16:36:41.682Z,99366.31
2022-07-28T16:42:44.432Z,99357.81
2022-07-28T16:48:46.422Z,99365.91
2022-07-28T16:54:48.441Z,99356.19
2022-07-28T17:00:51.024Z,99361.06
2022-07-28T17:06:53.048Z,99359.56
2022-07-28T17:12:55.293Z,99358.47
2022-07-28T17:18:57.743Z,99374.13
2022-07-28T17:24:59.705Z,99365.81
2022-07-28T17:31:01.890Z,99372.50
2022-07-28T17:37:04.922Z,99372.56
2022-07-28T17:43:07.043Z,99365.50
2022-07-28T17:49:09.223Z,99361.75
2022-07-28T17:55:30.187Z,99356.78
2022-07-28T18:01:33.523Z,99351.50
2022-07-28T18:07:49.021Z,99347.91
2022-07-28T18:14:04.252Z,99345.78
2022-07-28T18:20:08.790Z,99341.56
2022-07-28T18:26:10.907Z,99339.16
2022-07-28T18:32:14.536Z,99331.97
2022-07-28T18:38:16.539Z,99327.44
2022-07-28T18:44:19.651Z,99323.28
2022-07-28T18:50:31.076Z,99317.31
2022-07-28T18:56:33.764Z,99322.84
2022-07-28T19:02:37.612Z,99335.06
2022-07-28T19:08:39.633Z,99335.75
2022-07-28T19:14:41.699Z,99343.69
2022-07-28T19:20:46.772Z,99351.84
2022-07-28T19:26:51.211Z,99372.81
2022-07-28T19:32:53.206Z,99378.63
2022-07-28T19:38:55.257Z,99384.00
2022-07-28T19:44:57.347Z,99389.28
2022-07-28T19:51:00.590Z,99398.25
2022-07-28T19:57:02.578Z,99409.84
2022-07-28T20:04:02.522Z,99415.41
2022-07-28T20:09:34.847Z,99410.50
2022-07-28T20:15:38.772Z,99414.00
2022-07-28T20:21:40.882Z,99420.38
2022-07-28T20:27:43.228Z,99422.75
2022-07-28T20:33:45.223Z,99407.81
2022-07-28T20:39:47.187Z,99412.69
2022-07-28T20:45:49.396Z,99421.03
2022-07-28T20:51:51.534Z,99429.72
2022-07-28T20:57:57.474Z,99429.75
2022-07-28T21:03:59.464Z,99437.44
2022-07-28T21:10:01.461Z,99437.75
2022-07-28T21:16:03.811Z,99449.66
2022-07-28T21:22:05.908Z,99445.88
2022-07-28T21:28:43.324Z,99455.16
2022-07-28T21:34:45.519Z,99454.00
2022-07-28T21:40:47.533Z,99467.50
2022-07-28T21:46:49.576Z,99475.59
2022-07-28T21:52:51.575Z,99484.94
2022-07-28T21:58:54.001Z,99488.41
2022-07-28T22:04:56.068Z,99482.22
2022-07-28T22:10:58.842Z,99490.69
2022-07-28T22:17:01.444Z,99496.97
2022-07-28T22:23:03.646Z,99509.81
2022-07-28T22:29:20.169Z,99524.75
2022-07-28T22:35:22.870Z,99519.09
2022-07-28T22:41:24.832Z,99527.00
2022-07-28T22:47:28.528Z,99521.66
2022-07-28T22:53:30.496Z,99513.91
2022-07-28T22:59:35.703Z,99516.88
2022-07-28T23:05:42.064Z,99511.72
2022-07-28T23:11:54.528Z,99508.63
2022-07-28T23:17:57.646Z,99520.16
2022-07-28T23:23:59.629Z,99517.28
2022-07-28T23:30:01.712Z,99507.16
2022-07-28T23:36:06.465Z,99508.16
2022-07-28T23:42:08.539Z,99514.94
2022-07-28T23:48:10.508Z,99510.88
2022-07-28T23:54:14.618Z,99516.84
